createdAt,value
2019-05-06T00:01:04.795Z,7.30
2019-05-06T00:03:34.338Z,7.58
2019-05-06T00:06:03.959Z,7.62
2019-05-06T00:08:34.526Z,7.92
2019-05-06T00:11:02.477Z,8.15
2019-05-06T00:13:31.388Z,7.15
2019-05-06T00:15:59.641Z,8.13
2019-05-06T00:18:27.894Z,7.12
2019-05-06T00:20:57.575Z,7.58
2019-05-06T00:23:27.714Z,7.92
2019-05-06T00:26:06.410Z,7.45
2019-05-06T00:28:45.209Z,7.95
2019-05-06T00:31:16.603Z,7.45
2019-05-06T00:33:45.132Z,7.10
2019-05-06T00:36:14.185Z,6.90
2019-05-06T00:38:44.761Z,7.03
2019-05-06T00:44:06.373Z,7.47
2019-05-06T00:46:54.612Z,7.08
2019-05-06T00:49:23.851Z,7.37
2019-05-06T00:51:52.309Z,7.17
2019-05-06T00:54:25.120Z,7.30
2019-05-06T00:56:54.093Z,7.05
2019-05-06T00:59:23.857Z,6.62
2019-05-06T01:01:53.874Z,7.20
2019-05-06T01:04:24.370Z,6.70
2019-05-06T01:06:54.291Z,7.42
2019-05-06T01:09:23.806Z,8.43
2019-05-06T01:11:54.215Z,6.85
2019-05-06T01:14:24.420Z,7.47
2019-05-06T01:16:54.613Z,8.08
2019-05-06T01:19:23.577Z,7.92
2019-05-06T01:21:53.874Z,7.65
2019-05-06T01:24:23.753Z,7.42
2019-05-06T01:26:53.635Z,7.28
2019-05-06T01:29:23.879Z,6.95
2019-05-06T01:31:54.217Z,8.20
2019-05-06T01:34:21.819Z,8.20
2019-05-06T01:36:50.076Z,7.37
2019-05-06T01:42:34.407Z,8.38
2019-05-06T01:45:04.668Z,8.68
2019-05-06T01:47:34.583Z,7.40
2019-05-06T01:50:04.501Z,9.00
2019-05-06T01:52:34.454Z,7.70
2019-05-06T01:55:04.826Z,8.40
2019-05-06T01:57:33.840Z,7.80
2019-05-06T02:00:04.707Z,7.05
2019-05-06T02:02:34.214Z,8.48
2019-05-06T02:05:04.568Z,8.08
2019-05-06T02:07:32.246Z,7.60
2019-05-06T02:10:00.584Z,7.90
2019-05-06T02:12:28.841Z,7.45
2019-05-06T02:14:57.160Z,7.60
2019-05-06T02:17:25.421Z,7.30
2019-05-06T02:19:54.657Z,7.75
2019-05-06T02:22:41.340Z,7.55
2019-05-06T02:25:34.169Z,7.30
2019-05-06T02:28:03.958Z,7.75
2019-05-06T02:30:45.383Z,8.10
2019-05-06T02:33:15.354Z,8.18
2019-05-06T02:35:45.716Z,8.10
2019-05-06T02:38:15.618Z,8.48
2019-05-06T02:40:43.877Z,8.10
2019-05-06T02:43:13.574Z,8.48
2019-05-06T02:45:43.301Z,8.88
2019-05-06T02:48:14.005Z,7.70
2019-05-06T02:53:36.482Z,7.87
2019-05-06T02:56:04.790Z,8.10
2019-05-06T02:58:33.212Z,8.05
2019-05-06T03:01:03.619Z,7.87
2019-05-06T03:03:33.743Z,7.90
2019-05-06T03:06:03.799Z,9.18
2019-05-06T03:08:32.871Z,8.88
2019-05-06T03:11:03.999Z,8.80
2019-05-06T03:13:33.891Z,8.88
2019-05-06T03:16:05.283Z,9.33
2019-05-06T03:18:32.712Z,8.98
2019-05-06T03:21:03.808Z,9.38
2019-05-06T03:23:56.297Z,9.48
2019-05-06T03:26:24.537Z,9.08
2019-05-06T03:28:53.538Z,9.10
2019-05-06T03:31:26.139Z,9.53
2019-05-06T03:34:21.848Z,9.50
2019-05-06T03:36:34.912Z,9.58
2019-05-06T03:38:57.826Z,9.98
2019-05-06T03:41:26.661Z,8.90
2019-05-06T03:43:55.520Z,9.40
2019-05-06T03:46:42.965Z,10.50
2019-05-06T03:49:13.468Z,8.98
2019-05-06T03:51:42.939Z,9.23
2019-05-06T03:54:12.821Z,10.30
2019-05-06T03:56:43.287Z,10.15
2019-05-06T03:59:13.318Z,9.90
2019-05-06T04:01:42.973Z,10.23
2019-05-06T04:04:12.690Z,9.73
2019-05-06T04:06:43.725Z,9.60
2019-05-06T04:09:33.545Z,9.43
2019-05-06T04:12:03.635Z,8.93
2019-05-06T04:14:33.664Z,9.00
2019-05-06T04:17:13.231Z,8.30
2019-05-06T04:19:43.766Z,8.63
2019-05-06T04:25:13.931Z,8.08
2019-05-06T04:27:53.456Z,7.92
2019-05-06T04:30:24.364Z,8.45
2019-05-06T04:32:53.161Z,7.87
2019-05-06T04:35:22.929Z,7.85
2019-05-06T04:37:53.787Z,7.40
2019-05-06T04:40:23.889Z,8.28
2019-05-06T04:42:52.776Z,8.45
2019-05-06T04:45:23.554Z,7.83
2019-05-06T04:47:53.701Z,6.65
2019-05-06T04:50:23.892Z,7.22
2019-05-06T04:53:04.995Z,6.70
2019-05-06T04:55:55.637Z,7.60
2019-05-06T04:58:23.882Z,6.70
2019-05-06T05:00:53.092Z,6.30
2019-05-06T05:03:22.763Z,7.70
2019-05-06T05:05:52.983Z,7.35
2019-05-06T05:08:23.287Z,7.50
2019-05-06T05:11:05.109Z,7.95
2019-05-06T05:16:42.106Z,8.68
2019-05-06T05:19:12.199Z,8.83
2019-05-06T05:21:42.711Z,8.15
2019-05-06T05:24:12.009Z,7.55
2019-05-06T05:26:45.060Z,6.45
2019-05-06T05:29:12.323Z,6.22
2019-05-06T05:31:40.825Z,7.10
2019-05-06T05:34:09.078Z,6.30
2019-05-06T05:36:37.345Z,6.75
2019-05-06T05:39:06.455Z,6.80
2019-05-06T05:41:34.717Z,7.00
2019-05-06T05:44:04.608Z,7.37
2019-05-06T05:46:33.088Z,8.18
2019-05-06T05:49:03.237Z,7.62
2019-05-06T05:51:32.025Z,7.92
2019-05-06T05:54:02.210Z,7.65
2019-05-06T05:56:32.717Z,8.08
2019-05-06T05:59:03.026Z,8.80
2019-05-06T06:01:32.698Z,8.55
2019-05-06T06:04:03.037Z,7.92
2019-05-06T06:06:32.978Z,7.70
2019-05-06T06:09:00.542Z,8.73
2019-05-06T06:17:09.309Z,9.50
2019-05-06T06:19:39.193Z,10.28
2019-05-06T06:22:09.089Z,10.03
2019-05-06T06:24:37.396Z,9.70
2019-05-06T06:27:05.650Z,10.85
2019-05-06T06:29:33.892Z,9.93
2019-05-06T06:32:06.746Z,10.45
2019-05-06T06:37:34.086Z,10.45
2019-05-06T06:40:04.097Z,10.72
2019-05-06T06:42:33.510Z,9.75
2019-05-06T06:45:03.456Z,9.95
2019-05-06T06:47:32.094Z,11.18
2019-05-06T06:50:02.622Z,10.45
2019-05-06T06:52:32.408Z,10.53
2019-05-06T06:55:02.279Z,11.40
2019-05-06T06:57:34.677Z,10.75
2019-05-06T07:00:22.146Z,11.53
2019-05-06T07:03:02.584Z,11.00
2019-05-06T07:05:35.051Z,10.25
2019-05-06T07:08:03.373Z,10.15
2019-05-06T07:10:43.674Z,10.32
2019-05-06T07:13:13.449Z,10.13
2019-05-06T07:15:42.675Z,9.00
2019-05-06T07:18:13.494Z,9.68
2019-05-06T07:20:54.598Z,9.95
2019-05-06T07:23:32.517Z,9.80
2019-05-06T07:26:02.863Z,9.08
2019-05-06T07:28:32.457Z,8.30
2019-05-06T07:31:14.955Z,8.83
2019-05-06T07:33:30.405Z,7.37
2019-05-06T07:35:58.649Z,8.20
2019-05-06T07:38:26.918Z,7.35
2019-05-06T07:40:56.796Z,6.67
2019-05-06T07:43:33.897Z,6.90
2019-05-06T07:46:06.861Z,6.60
2019-05-06T07:48:35.117Z,7.03
2019-05-06T07:51:03.370Z,5.35
2019-05-06T07:53:32.145Z,5.95
2019-05-06T07:56:03.561Z,5.65
2019-05-06T07:58:32.269Z,5.05
2019-05-06T08:01:02.709Z,4.97
2019-05-06T08:03:32.820Z,5.15
2019-05-06T08:06:02.656Z,4.58
2019-05-06T08:08:32.903Z,4.85
2019-05-06T08:11:02.688Z,5.05
2019-05-06T08:13:32.318Z,5.20
2019-05-06T08:16:02.280Z,5.37
2019-05-06T08:18:32.815Z,5.28
2019-05-06T08:21:02.539Z,4.87
2019-05-06T08:23:44.893Z,5.35
2019-05-06T08:26:17.344Z,4.47
2019-05-06T08:28:44.551Z,5.10
2019-05-06T08:31:12.977Z,4.95
2019-05-06T08:33:43.154Z,5.00
2019-05-06T08:36:14.932Z,4.33
2019-05-06T08:38:59.488Z,4.67
2019-05-06T08:41:27.729Z,5.30
2019-05-06T08:43:56.049Z,4.17
2019-05-06T08:46:24.292Z,3.35
2019-05-06T08:48:52.765Z,3.52
2019-05-06T08:51:42.611Z,4.25
2019-05-06T08:54:13.362Z,3.00
2019-05-06T08:56:42.689Z,2.25
2019-05-06T08:59:11.328Z,3.50
2019-05-06T09:01:46.860Z,2.87
2019-05-06T09:04:16.291Z,2.22
2019-05-06T09:06:45.117Z,2.25
2019-05-06T09:09:13.374Z,4.30
2019-05-06T09:11:43.103Z,4.53
2019-05-06T09:14:13.751Z,3.85
2019-05-06T09:16:43.780Z,6.10
2019-05-06T09:19:12.930Z,6.62
2019-05-06T09:21:45.689Z,3.40
2019-05-06T09:24:12.830Z,4.08
2019-05-06T09:26:46.001Z,4.30
2019-05-06T09:29:18.981Z,2.80
2019-05-06T09:31:48.868Z,3.47
2019-05-06T09:34:24.768Z,2.95
2019-05-06T09:37:13.382Z,3.65
2019-05-06T09:39:43.217Z,3.62
2019-05-06T09:42:12.865Z,3.10
2019-05-06T09:44:42.853Z,3.60
2019-05-06T09:47:13.011Z,3.37
2019-05-06T09:49:43.005Z,3.45
2019-05-06T09:52:12.996Z,3.35
2019-05-06T09:54:45.842Z,3.37
2019-05-06T09:57:18.464Z,3.40
2019-05-06T09:59:46.732Z,3.72
2019-05-06T10:02:14.993Z,3.30
2019-05-06T10:04:43.245Z,3.80
2019-05-06T10:07:11.897Z,3.62
2019-05-06T10:09:43.209Z,3.70
2019-05-06T10:12:12.561Z,4.17
2019-05-06T10:14:43.293Z,4.12
2019-05-06T10:17:13.221Z,3.62
2019-05-06T10:19:42.971Z,3.22
2019-05-06T10:22:12.671Z,3.17
2019-05-06T10:24:43.120Z,3.22
2019-05-06T10:27:12.109Z,3.25
2019-05-06T10:29:58.928Z,2.67
2019-05-06T10:32:28.820Z,2.50
2019-05-06T10:34:57.075Z,2.95
2019-05-06T10:37:33.542Z,3.00
2019-05-06T10:40:04.292Z,3.60
2019-05-06T10:42:35.785Z,2.45
2019-05-06T10:45:28.124Z,2.90
2019-05-06T10:47:56.725Z,2.77
2019-05-06T10:50:25.804Z,3.70
2019-05-06T10:53:07.728Z,3.42
2019-05-06T10:55:37.665Z,3.45
2019-05-06T10:58:05.909Z,3.20
2019-05-06T11:00:34.175Z,3.33
2019-05-06T11:03:16.148Z,3.20
2019-05-06T11:05:44.410Z,3.10
2019-05-06T11:08:12.661Z,3.70
2019-05-06T11:10:44.698Z,3.25
2019-05-06T11:13:12.833Z,2.80
2019-05-06T11:15:43.157Z,2.55
2019-05-06T11:18:13.554Z,2.30
2019-05-06T11:20:43.459Z,3.05
2019-05-06T11:23:10.877Z,2.65
2019-05-06T11:25:39.133Z,2.60
2019-05-06T11:28:09.017Z,2.90
2019-05-06T11:30:38.909Z,2.83
2019-05-06T11:36:07.193Z,3.87
2019-05-06T11:38:35.441Z,3.20
2019-05-06T11:41:03.717Z,3.10
2019-05-06T11:43:32.498Z,3.30
2019-05-06T11:46:01.151Z,3.70
2019-05-06T11:48:29.401Z,3.67
2019-05-06T11:50:59.298Z,3.10
2019-05-06T11:53:27.549Z,3.85
2019-05-06T11:55:55.881Z,4.12
2019-05-06T11:58:42.894Z,3.80
2019-05-06T12:01:13.599Z,4.15
2019-05-06T12:04:02.665Z,4.17
2019-05-06T12:06:33.025Z,3.70
2019-05-06T12:09:06.082Z,3.40
2019-05-06T12:11:31.277Z,3.47
2019-05-06T12:13:59.517Z,3.40
2019-05-06T12:16:27.779Z,3.10
2019-05-06T12:18:59.265Z,3.10
2019-05-06T12:21:26.025Z,3.17
2019-05-06T12:23:54.357Z,3.40
2019-05-06T12:26:22.613Z,3.42
2019-05-06T12:28:52.941Z,3.15
2019-05-06T12:31:23.091Z,3.10
2019-05-06T12:33:53.075Z,3.20
2019-05-06T12:36:22.070Z,4.22
2019-05-06T12:39:08.242Z,3.55
2019-05-06T12:41:38.223Z,3.58
2019-05-06T12:44:06.468Z,3.67
2019-05-06T12:46:36.373Z,3.77
2019-05-06T12:49:05.362Z,3.95
2019-05-06T12:51:33.609Z,3.47
2019-05-06T12:54:03.503Z,4.37
2019-05-06T12:56:31.846Z,3.98
2019-05-06T12:59:19.527Z,3.62
2019-05-06T13:01:47.860Z,3.98
2019-05-06T13:04:16.125Z,3.52
2019-05-06T13:06:46.191Z,3.42
2019-05-06T13:09:14.423Z,3.30
2019-05-06T13:11:43.254Z,2.70
2019-05-06T13:14:12.774Z,3.12
2019-05-06T13:16:42.557Z,3.15
2019-05-06T13:19:12.124Z,3.50
2019-05-06T13:21:42.259Z,3.05
2019-05-06T13:24:12.192Z,3.58
2019-05-06T13:26:43.060Z,3.35
2019-05-06T13:29:13.165Z,18.15
2019-05-06T13:31:43.573Z,3.67
2019-05-06T13:34:13.095Z,3.08
2019-05-06T13:36:42.896Z,3.27
2019-05-06T13:39:15.043Z,2.98
2019-05-06T13:41:42.219Z,7.25
2019-05-06T13:44:13.219Z,3.50
2019-05-06T13:46:43.272Z,3.50
2019-05-06T13:49:22.888Z,5.10
2019-05-06T13:52:03.495Z,8.13
2019-05-06T13:54:29.080Z,4.83
2019-05-06T13:56:57.709Z,3.50
2019-05-06T13:59:29.830Z,3.77
2019-05-06T14:02:16.418Z,4.12
2019-05-06T14:04:45.013Z,3.72
2019-05-06T14:07:13.359Z,3.65
2019-05-06T14:09:43.582Z,3.02
2019-05-06T14:12:11.571Z,3.10
2019-05-06T14:14:39.812Z,2.33
2019-05-06T14:17:08.097Z,3.85
2019-05-06T14:19:36.340Z,3.08
2019-05-06T14:22:04.598Z,2.92
2019-05-06T14:24:33.816Z,4.00
2019-05-06T14:27:03.711Z,3.52
2019-05-06T14:29:33.588Z,4.30
2019-05-06T14:32:02.318Z,4.22
2019-05-06T14:34:32.524Z,3.50
2019-05-06T14:37:00.537Z,3.10
2019-05-06T14:39:47.507Z,3.37
2019-05-06T14:42:03.961Z,3.65
2019-05-06T14:44:32.512Z,4.30
2019-05-06T14:47:04.946Z,3.87
2019-05-06T14:49:33.189Z,3.58
2019-05-06T14:52:02.640Z,3.40
2019-05-06T14:54:33.082Z,3.33
2019-05-06T14:57:08.644Z,2.52
2019-05-06T14:59:36.889Z,2.90
2019-05-06T15:02:05.156Z,2.55
2019-05-06T15:04:33.397Z,3.62
2019-05-06T15:07:02.260Z,2.92
2019-05-06T15:09:32.931Z,3.47
2019-05-06T15:12:02.337Z,4.25
2019-05-06T15:14:33.138Z,4.03
2019-05-06T15:17:02.271Z,3.95
2019-05-06T15:19:30.776Z,4.60
2019-05-06T15:21:59.028Z,3.20
2019-05-06T15:24:27.278Z,2.72
2019-05-06T15:26:55.535Z,3.40
2019-05-06T15:29:23.933Z,4.40
2019-05-06T15:31:56.693Z,3.30
2019-05-06T15:34:33.411Z,3.77
2019-05-06T15:37:09.357Z,2.60
2019-05-06T15:39:37.597Z,3.10
2019-05-06T15:42:05.873Z,3.10
2019-05-06T15:44:35.424Z,3.22
2019-05-06T15:47:03.841Z,2.72
2019-05-06T15:49:32.403Z,2.65
2019-05-06T15:52:03.448Z,3.85
2019-05-06T15:54:32.243Z,4.45
2019-05-06T15:57:00.742Z,5.75
2019-05-06T15:59:30.139Z,4.22
2019-05-06T16:01:58.381Z,3.85
2019-05-06T16:04:26.651Z,3.72
2019-05-06T16:06:54.888Z,3.80
2019-05-06T16:09:23.567Z,3.70
2019-05-06T16:11:53.377Z,3.92
2019-05-06T16:14:23.022Z,4.10
2019-05-06T16:16:52.759Z,3.30
2019-05-06T16:19:22.831Z,2.90
2019-05-06T16:21:52.382Z,2.50
2019-05-06T16:24:42.836Z,2.90
2019-05-06T16:27:12.268Z,5.33
2019-05-06T16:29:42.660Z,3.87
2019-05-06T16:32:10.758Z,3.80
2019-05-06T16:34:42.931Z,4.22
2019-05-06T16:37:12.702Z,4.62
2019-05-06T16:39:41.217Z,6.08
2019-05-06T16:42:12.726Z,3.92
2019-05-06T16:44:45.094Z,4.42
2019-05-06T16:47:12.747Z,4.12
2019-05-06T16:49:42.275Z,3.67
2019-05-06T16:52:12.949Z,3.40
2019-05-06T16:54:42.533Z,4.05
2019-05-06T16:57:13.599Z,3.60
2019-05-06T16:59:42.443Z,3.90
2019-05-06T17:02:13.966Z,3.20
2019-05-06T17:07:22.199Z,3.27
2019-05-06T17:09:52.488Z,3.45
2019-05-06T17:12:21.935Z,3.47
2019-05-06T17:14:52.809Z,2.85
2019-05-06T17:17:22.888Z,3.35
2019-05-06T17:19:52.876Z,3.20
2019-05-06T17:22:22.944Z,3.70
2019-05-06T17:24:52.898Z,3.55
2019-05-06T17:27:23.421Z,3.05
2019-05-06T17:30:04.914Z,3.75
2019-05-06T17:32:34.809Z,3.60
2019-05-06T17:35:03.540Z,4.78
2019-05-06T17:37:52.698Z,6.30
2019-05-06T17:40:22.980Z,4.95
2019-05-06T17:42:53.299Z,4.72
2019-05-06T17:45:39.462Z,4.03
2019-05-06T17:48:23.226Z,4.72
2019-05-06T17:51:09.446Z,4.45
2019-05-06T17:53:42.576Z,3.98
2019-05-06T17:56:12.565Z,4.08
2019-05-06T17:58:42.317Z,4.10
2019-05-06T18:01:12.602Z,3.90
2019-05-06T18:03:41.188Z,4.67
2019-05-06T18:06:14.029Z,4.03
2019-05-06T18:08:39.482Z,3.90
2019-05-06T18:11:07.757Z,5.72
2019-05-06T18:13:36.015Z,6.50
2019-05-06T18:16:04.266Z,8.53
2019-05-06T18:18:32.517Z,10.25
2019-05-06T18:21:02.754Z,10.58
2019-05-06T18:23:33.405Z,13.43
2019-05-06T18:26:03.028Z,9.20
2019-05-06T18:28:32.670Z,6.92
2019-05-06T18:31:03.124Z,6.10
2019-05-06T18:33:32.583Z,7.10
2019-05-06T18:36:02.598Z,8.03
2019-05-06T18:38:32.905Z,10.05
2019-05-06T18:41:02.013Z,10.95
2019-05-06T18:43:32.658Z,11.05
2019-05-06T18:46:02.600Z,12.00
2019-05-06T18:48:32.913Z,12.10
2019-05-06T18:51:02.808Z,14.25
2019-05-06T18:53:32.588Z,12.93
2019-05-06T18:56:00.295Z,12.90
2019-05-06T18:58:28.541Z,13.08
2019-05-06T19:00:56.798Z,12.93
2019-05-06T19:03:26.698Z,14.47
2019-05-06T19:05:54.961Z,14.60
2019-05-06T19:08:32.824Z,14.03
2019-05-06T19:11:02.452Z,12.03
2019-05-06T19:13:32.945Z,11.03
2019-05-06T19:16:02.096Z,11.93
2019-05-06T19:18:30.529Z,10.50
2019-05-06T19:20:58.784Z,9.35
2019-05-06T19:23:27.025Z,9.45
2019-05-06T19:25:55.281Z,8.25
2019-05-06T19:28:23.546Z,9.50
2019-05-06T19:30:54.076Z,7.62
2019-05-06T19:33:21.766Z,7.47
2019-05-06T19:35:52.181Z,8.05
2019-05-06T19:38:21.682Z,8.48
2019-05-06T19:40:52.173Z,8.40
2019-05-06T19:43:21.845Z,8.63
2019-05-06T19:45:49.926Z,7.97
2019-05-06T19:48:18.177Z,8.35
2019-05-06T19:50:46.565Z,8.05
2019-05-06T19:53:14.850Z,8.55
2019-05-06T19:55:46.673Z,8.28
2019-05-06T19:58:13.085Z,8.90
2019-05-06T20:00:42.034Z,7.95
2019-05-06T20:03:12.292Z,9.10
2019-05-06T20:05:45.288Z,9.35
2019-05-06T20:08:23.138Z,9.45
2019-05-06T20:11:02.305Z,10.10
2019-05-06T20:13:32.259Z,17.27
2019-05-06T20:16:02.266Z,22.52
2019-05-06T20:18:32.729Z,21.87
2019-05-06T20:21:00.726Z,15.00
2019-05-06T20:23:28.968Z,9.88
2019-05-06T20:25:57.232Z,8.93
2019-05-06T20:28:25.475Z,9.13
2019-05-06T20:30:53.796Z,8.90
2019-05-06T20:33:22.136Z,8.75
2019-05-06T20:35:52.400Z,7.95
2019-05-06T20:38:20.432Z,7.90
2019-05-06T20:40:48.701Z,8.43
2019-05-06T20:43:20.687Z,9.05
2019-05-06T20:45:46.977Z,9.08
2019-05-06T20:48:15.234Z,8.93
2019-05-06T20:50:43.471Z,9.68
2019-05-06T20:53:12.278Z,8.68
2019-05-06T20:55:43.114Z,8.43
2019-05-06T20:58:12.249Z,10.43
2019-05-06T21:00:42.678Z,9.73
2019-05-06T21:03:12.261Z,8.23
2019-05-06T21:05:43.193Z,7.65
2019-05-06T21:08:12.871Z,6.75
2019-05-06T21:10:42.498Z,7.12
2019-05-06T21:13:13.096Z,7.37
2019-05-06T21:15:42.970Z,7.95
2019-05-06T21:18:12.094Z,7.30
2019-05-06T21:20:40.648Z,7.30
2019-05-06T21:23:08.903Z,7.35
2019-05-06T21:25:37.136Z,7.78
2019-05-06T21:28:05.403Z,8.43
2019-05-06T21:30:33.652Z,7.62
2019-05-06T21:33:01.915Z,9.05
2019-05-06T21:35:30.149Z,9.65
2019-05-06T21:37:58.406Z,9.38
2019-05-06T21:40:26.652Z,10.38
2019-05-06T21:42:54.905Z,10.38
2019-05-06T21:45:23.209Z,11.38
2019-05-06T21:47:53.034Z,10.00
2019-05-06T21:50:22.800Z,9.58
2019-05-06T21:52:51.464Z,8.53
2019-05-06T21:55:22.714Z,8.48
2019-05-06T21:57:52.990Z,8.80
2019-05-06T22:00:23.392Z,9.50
2019-05-06T22:02:52.988Z,10.48
2019-05-06T22:05:22.657Z,10.45
2019-05-06T22:07:52.608Z,10.40
2019-05-06T22:10:23.077Z,10.50
2019-05-06T22:12:52.668Z,10.23
2019-05-06T22:15:22.791Z,10.40
2019-05-06T22:17:54.321Z,10.48
2019-05-06T22:20:23.625Z,11.55
2019-05-06T22:22:52.055Z,12.10
2019-05-06T22:25:22.087Z,10.75
2019-05-06T22:27:51.939Z,10.45
2019-05-06T22:30:23.686Z,10.95
2019-05-06T22:32:52.573Z,9.98
2019-05-06T22:35:22.891Z,10.53
2019-05-06T22:37:52.743Z,9.85
2019-05-06T22:40:23.547Z,9.78
2019-05-06T22:42:52.606Z,9.45
2019-05-06T22:45:22.251Z,10.63
2019-05-06T22:47:50.296Z,9.55
2019-05-06T22:50:18.547Z,10.00
2019-05-06T22:52:46.805Z,11.00
2019-05-06T22:55:15.058Z,10.63
2019-05-06T22:57:43.304Z,10.40
2019-05-06T23:00:15.391Z,12.28
2019-05-06T23:02:45.253Z,11.22
2019-05-06T23:05:13.508Z,11.83
2019-05-06T23:07:42.306Z,11.18
2019-05-06T23:10:10.796Z,11.12
2019-05-06T23:12:39.045Z,12.53
2019-05-06T23:15:07.316Z,12.73
2019-05-06T23:17:35.557Z,11.45
2019-05-06T23:20:05.053Z,11.57
2019-05-06T23:22:33.302Z,12.90
2019-05-06T23:25:02.341Z,11.78
2019-05-06T23:27:31.005Z,12.43
2019-05-06T23:29:59.307Z,12.28
2019-05-06T23:32:27.567Z,12.25
2019-05-06T23:34:55.835Z,11.93
2019-05-06T23:37:23.481Z,16.27
2019-05-06T23:40:30.228Z,19.23
2019-05-06T23:43:34.924Z,20.52
2019-05-06T23:46:39.710Z,19.95
2019-05-06T23:49:44.453Z,21.13
2019-05-06T23:52:49.172Z,23.15
2019-05-06T23:55:54.148Z,24.57
2019-05-06T23:58:22.490Z,25.65
